createdAt,value
2023-04-06T00:02:17.001Z,5.40
2023-04-06T00:04:43.423Z,4.78
2023-04-06T00:07:09.864Z,5.10
2023-04-06T00:09:36.708Z,4.93
2023-04-06T00:12:03.228Z,5.38
2023-04-06T00:14:29.700Z,5.03
2023-04-06T00:16:56.836Z,4.75
2023-04-06T00:19:23.385Z,5.85
2023-04-06T00:21:49.899Z,5.55
2023-04-06T00:24:16.556Z,5.25
2023-04-06T00:26:43.335Z,5.72
2023-04-06T00:29:10.257Z,5.55
2023-04-06T00:31:36.887Z,5.43
2023-04-06T00:34:03.560Z,5.28
2023-04-06T00:36:30.892Z,5.22
2023-04-06T00:38:57.307Z,5.22
2023-04-06T00:41:24.559Z,5.65
2023-04-06T00:43:51.037Z,5.90
2023-04-06T00:46:17.654Z,5.10
2023-04-06T00:48:44.351Z,5.90
2023-04-06T00:51:11.281Z,5.38
2023-04-06T00:53:37.725Z,5.47
2023-04-06T00:56:04.378Z,5.72
2023-04-06T00:58:30.944Z,5.88
2023-04-06T01:00:57.886Z,5.90
2023-04-06T01:03:24.459Z,5.55
2023-04-06T01:05:56.585Z,5.55
2023-04-06T01:08:23.280Z,5.30
2023-04-06T01:10:49.980Z,5.82
2023-04-06T01:13:16.782Z,5.50
2023-04-06T01:15:43.572Z,5.47
2023-04-06T01:18:11.655Z,5.60
2023-04-06T01:20:38.256Z,5.13
2023-04-06T01:23:05.278Z,5.38
2023-04-06T01:25:31.768Z,6.32
2023-04-06T01:27:58.517Z,5.72
2023-04-06T01:30:25.075Z,5.20
2023-04-06T01:32:51.851Z,5.65
2023-04-06T01:35:20.232Z,5.07
2023-04-06T01:37:46.668Z,5.25
2023-04-06T01:40:14.806Z,6.32
2023-04-06T01:42:41.358Z,5.50
2023-04-06T01:45:08.613Z,4.90
2023-04-06T01:47:35.135Z,5.18
2023-04-06T01:50:02.244Z,5.25
2023-04-06T01:52:28.666Z,5.18
2023-04-06T01:54:55.244Z,5.68
2023-04-06T01:57:22.417Z,5.47
2023-04-06T01:59:48.812Z,4.97
2023-04-06T02:02:15.468Z,4.70
2023-04-06T02:04:42.281Z,5.10
2023-04-06T02:07:08.726Z,5.10
2023-04-06T02:09:35.743Z,5.88
2023-04-06T02:12:02.747Z,4.93
2023-04-06T02:14:29.271Z,5.93
2023-04-06T02:16:55.780Z,6.07
2023-04-06T02:19:22.158Z,5.97
2023-04-06T02:21:48.818Z,5.57
2023-04-06T02:24:15.456Z,5.63
2023-04-06T02:26:41.856Z,4.85
2023-04-06T02:29:08.624Z,5.78
2023-04-06T02:31:35.342Z,5.50
2023-04-06T02:34:01.793Z,5.40
2023-04-06T02:36:28.169Z,4.82
2023-04-06T02:38:55.226Z,5.38
2023-04-06T02:41:21.679Z,5.30
2023-04-06T02:43:48.107Z,5.93
2023-04-06T02:46:14.567Z,5.35
2023-04-06T02:48:41.554Z,5.00
2023-04-06T02:51:08.044Z,5.50
2023-04-06T02:53:34.882Z,5.35
2023-04-06T02:56:01.599Z,5.20
2023-04-06T02:58:28.014Z,5.35
2023-04-06T03:00:54.708Z,5.50
2023-04-06T03:03:21.555Z,5.43
2023-04-06T03:05:48.516Z,5.40
2023-04-06T03:08:15.197Z,5.45
2023-04-06T03:10:41.995Z,5.60
2023-04-06T03:13:08.388Z,6.43
2023-04-06T03:15:34.845Z,6.10
2023-04-06T03:18:01.330Z,5.40
2023-04-06T03:20:28.147Z,6.20
2023-04-06T03:22:54.870Z,6.57
2023-04-06T03:25:21.232Z,6.32
2023-04-06T03:27:48.051Z,6.38
2023-04-06T03:30:14.653Z,5.95
2023-04-06T03:32:41.495Z,5.60
2023-04-06T03:35:08.246Z,6.30
2023-04-06T03:37:35.020Z,6.10
2023-04-06T03:40:01.583Z,5.60
2023-04-06T03:42:27.971Z,5.47
2023-04-06T03:44:54.661Z,6.03
2023-04-06T03:47:21.327Z,6.40
2023-04-06T03:49:47.757Z,5.47
2023-04-06T03:52:14.141Z,5.22
2023-04-06T03:54:41.040Z,5.85
2023-04-06T03:57:07.683Z,5.53
2023-04-06T03:59:34.663Z,5.50
2023-04-06T04:02:01.161Z,4.60
2023-04-06T04:04:27.616Z,5.65
2023-04-06T04:06:54.241Z,5.43
2023-04-06T04:09:20.631Z,5.32
2023-04-06T04:11:47.474Z,5.47
2023-04-06T04:14:13.866Z,6.13
2023-04-06T04:16:40.793Z,6.10
2023-04-06T04:19:07.507Z,5.75
2023-04-06T04:21:34.469Z,5.35
2023-04-06T04:24:00.849Z,5.90
2023-04-06T04:26:27.277Z,4.88
2023-04-06T04:28:53.709Z,5.10
2023-04-06T04:31:21.337Z,6.07
2023-04-06T04:33:47.770Z,5.20
2023-04-06T04:36:14.332Z,4.95
2023-04-06T04:38:41.148Z,5.43
2023-04-06T04:41:07.518Z,5.70
2023-04-06T04:43:34.396Z,5.38
2023-04-06T04:46:00.777Z,5.68
2023-04-06T04:48:27.250Z,5.35
2023-04-06T04:50:53.980Z,5.45
2023-04-06T04:53:20.601Z,6.13
2023-04-06T04:55:47.383Z,5.35
2023-04-06T04:58:17.468Z,5.50
2023-04-06T05:00:44.820Z,5.28
2023-04-06T05:03:19.370Z,5.50
2023-04-06T05:05:45.960Z,5.13
2023-04-06T05:08:13.439Z,5.00
2023-04-06T05:10:40.667Z,5.30
2023-04-06T05:13:07.047Z,4.85
2023-04-06T05:15:35.897Z,5.60
2023-04-06T05:18:02.419Z,5.88
2023-04-06T05:20:29.123Z,5.40
2023-04-06T05:22:55.503Z,5.00
2023-04-06T05:25:22.374Z,5.20
2023-04-06T05:27:48.812Z,4.90
2023-04-06T05:30:15.725Z,5.18
2023-04-06T05:32:43.565Z,4.82
2023-04-06T05:35:10.591Z,5.30
2023-04-06T05:37:37.192Z,5.55
2023-04-06T05:40:04.484Z,5.13
2023-04-06T05:42:40.866Z,5.38
2023-04-06T05:45:08.072Z,5.18
2023-04-06T05:47:34.750Z,5.72
2023-04-06T05:50:01.212Z,5.50
2023-04-06T05:52:27.916Z,4.97
2023-04-06T05:54:55.093Z,5.28
2023-04-06T05:57:21.837Z,5.28
2023-04-06T05:59:48.543Z,5.38
2023-04-06T06:02:15.220Z,4.63
2023-04-06T06:04:41.800Z,5.10
2023-04-06T06:07:08.888Z,5.13
2023-04-06T06:09:35.259Z,4.57
2023-04-06T06:12:01.702Z,4.90
2023-04-06T06:14:31.413Z,5.43
2023-04-06T06:16:58.181Z,5.03
2023-04-06T06:19:24.583Z,4.85
2023-04-06T06:21:51.468Z,5.15
2023-04-06T06:24:17.918Z,5.32
2023-04-06T06:26:44.790Z,5.07
2023-04-06T06:29:11.461Z,5.22
2023-04-06T06:31:38.186Z,4.85
2023-04-06T06:34:05.053Z,4.88
2023-04-06T06:36:32.574Z,4.45
2023-04-06T06:38:59.341Z,4.95
2023-04-06T06:41:26.991Z,5.03
2023-04-06T06:43:53.439Z,4.72
2023-04-06T06:46:19.907Z,5.35
2023-04-06T06:48:46.581Z,4.97
2023-04-06T06:51:13.133Z,5.30
2023-04-06T06:53:39.540Z,5.03
2023-04-06T06:56:06.222Z,4.68
2023-04-06T06:58:32.656Z,5.32
2023-04-06T07:01:00.050Z,5.95
2023-04-06T07:03:27.027Z,4.88
2023-04-06T07:05:56.614Z,6.38
2023-04-06T07:08:24.893Z,4.88
2023-04-06T07:10:59.357Z,5.40
2023-04-06T07:13:27.988Z,5.53
2023-04-06T07:15:54.981Z,5.05
2023-04-06T07:18:22.136Z,5.18
2023-04-06T07:20:48.644Z,5.10
2023-04-06T07:23:15.209Z,5.60
2023-04-06T07:25:41.780Z,5.63
2023-04-06T07:28:08.615Z,5.50
2023-04-06T07:30:36.979Z,5.25
2023-04-06T07:33:03.780Z,5.45
2023-04-06T07:35:31.160Z,4.90
2023-04-06T07:37:58.273Z,5.32
2023-04-06T07:40:24.784Z,5.53
2023-04-06T07:42:51.393Z,5.50
2023-04-06T07:45:17.863Z,5.40
2023-04-06T07:47:44.256Z,6.20
2023-04-06T07:50:11.351Z,6.10
2023-04-06T07:52:38.671Z,5.93
2023-04-06T07:55:05.876Z,5.88
2023-04-06T07:57:32.265Z,5.88
2023-04-06T07:59:59.162Z,6.43
2023-04-06T08:02:25.698Z,6.53
2023-04-06T08:04:52.513Z,6.43
2023-04-06T08:07:18.974Z,6.18
2023-04-06T08:09:45.526Z,6.80
2023-04-06T08:12:12.394Z,6.28
2023-04-06T08:14:38.783Z,6.30
2023-04-06T08:17:06.487Z,6.25
2023-04-06T08:19:33.292Z,6.25
2023-04-06T08:21:59.710Z,6.20
2023-04-06T08:24:26.581Z,7.38
2023-04-06T08:26:53.939Z,6.25
2023-04-06T08:29:20.836Z,6.53
2023-04-06T08:31:47.221Z,6.15
2023-04-06T08:34:14.579Z,7.57
2023-04-06T08:36:42.134Z,6.75
2023-04-06T08:39:08.750Z,7.53
2023-04-06T08:41:35.770Z,5.93
2023-04-06T08:44:03.533Z,5.90
2023-04-06T08:46:31.542Z,6.55
2023-04-06T08:49:03.068Z,6.45
2023-04-06T08:51:31.533Z,6.45
2023-04-06T08:54:00.500Z,6.18
2023-04-06T08:56:28.928Z,6.80
2023-04-06T08:58:56.879Z,6.95
2023-04-06T09:01:30.465Z,7.00
2023-04-06T09:03:59.502Z,6.93
2023-04-06T09:06:27.846Z,6.60
2023-04-06T09:08:54.513Z,6.78
2023-04-06T09:11:21.304Z,6.53
2023-04-06T09:13:53.750Z,6.82
2023-04-06T09:16:20.803Z,6.10
2023-04-06T09:18:48.486Z,7.22
2023-04-06T09:21:19.274Z,7.03
2023-04-06T09:23:46.537Z,7.25
2023-04-06T09:26:15.007Z,6.45
2023-04-06T09:28:57.915Z,7.40
2023-04-06T09:31:28.848Z,6.43
2023-04-06T09:33:56.940Z,6.72
2023-04-06T09:36:41.218Z,6.53
2023-04-06T09:39:08.546Z,7.55
2023-04-06T09:41:36.684Z,6.65
2023-04-06T09:44:10.408Z,7.78
2023-04-06T09:46:55.151Z,7.00
2023-04-06T09:49:27.664Z,6.75
2023-04-06T09:52:00.734Z,7.10
2023-04-06T09:54:31.052Z,7.50
2023-04-06T09:57:26.331Z,7.28
2023-04-06T10:00:12.025Z,7.55
2023-04-06T10:03:10.431Z,7.18
2023-04-06T10:05:56.125Z,7.40
2023-04-06T10:08:25.146Z,7.07
2023-04-06T10:10:52.687Z,6.80
2023-04-06T10:13:20.244Z,7.18
2023-04-06T10:15:47.251Z,6.72
2023-04-06T10:18:15.218Z,7.78
2023-04-06T10:20:50.443Z,7.43
2023-04-06T10:26:00.867Z,7.25
2023-04-06T10:28:37.140Z,7.60
2023-04-06T10:31:06.962Z,7.25
2023-04-06T10:33:33.642Z,7.10
2023-04-06T10:36:30.709Z,7.00
2023-04-06T10:39:00.002Z,7.95
2023-04-06T10:41:43.867Z,7.53
2023-04-06T10:44:21.499Z,7.32
2023-04-06T10:47:01.388Z,7.30
2023-04-06T10:49:28.196Z,6.38
2023-04-06T10:51:55.992Z,7.68
2023-04-06T10:54:24.825Z,7.72
2023-04-06T10:56:51.362Z,8.65
2023-04-06T10:59:22.480Z,7.80
2023-04-06T11:01:49.890Z,8.07
2023-04-06T11:04:18.994Z,7.53
2023-04-06T11:06:50.757Z,7.10
2023-04-06T11:09:30.888Z,7.22
2023-04-06T11:11:57.855Z,7.57
2023-04-06T11:14:24.504Z,7.60
2023-04-06T11:16:51.294Z,7.63
2023-04-06T11:19:18.432Z,7.57
2023-04-06T11:21:50.646Z,8.20
2023-04-06T11:24:24.623Z,7.60
2023-04-06T11:26:57.522Z,7.88
2023-04-06T11:29:26.514Z,7.95
2023-04-06T11:31:58.653Z,6.80
2023-04-06T11:34:25.998Z,7.65
2023-04-06T11:36:58.031Z,7.00
2023-04-06T11:39:26.568Z,7.18
2023-04-06T11:42:01.345Z,7.43
2023-04-06T11:44:41.263Z,7.50
2023-04-06T11:47:09.843Z,7.90
2023-04-06T11:49:40.721Z,7.00
2023-04-06T11:52:17.879Z,7.30
2023-04-06T11:54:45.423Z,6.38
2023-04-06T11:57:11.860Z,6.68
2023-04-06T11:59:38.357Z,6.97
2023-04-06T12:02:05.404Z,6.57
2023-04-06T12:04:32.616Z,6.53
2023-04-06T12:06:59.343Z,6.40
2023-04-06T12:09:26.032Z,5.95
2023-04-06T12:11:52.831Z,6.93
2023-04-06T12:14:19.315Z,7.00
2023-04-06T12:16:46.239Z,6.80
2023-04-06T12:19:12.710Z,6.43
2023-04-06T12:21:39.569Z,6.30
2023-04-06T12:24:06.400Z,6.53
2023-04-06T12:26:34.454Z,6.80
2023-04-06T12:29:10.110Z,6.72
2023-04-06T12:31:39.183Z,6.65
2023-04-06T12:34:05.972Z,5.90
2023-04-06T12:36:35.509Z,5.60
2023-04-06T12:39:02.266Z,5.78
2023-04-06T12:41:29.780Z,6.97
2023-04-06T12:43:56.626Z,6.97
2023-04-06T12:46:24.657Z,6.40
2023-04-06T12:48:54.524Z,6.90
2023-04-06T12:51:22.574Z,6.45
2023-04-06T12:53:49.107Z,6.72
2023-04-06T12:56:22.099Z,6.45
2023-04-06T12:58:48.539Z,7.35
2023-04-06T13:01:15.330Z,7.40
2023-04-06T13:03:42.885Z,6.90
2023-04-06T13:06:10.353Z,7.03
2023-04-06T13:08:38.950Z,7.93
2023-04-06T13:11:09.315Z,7.00
2023-04-06T13:13:36.201Z,7.05
2023-04-06T13:16:05.652Z,7.53
2023-04-06T13:18:33.264Z,5.93
2023-04-06T13:21:03.465Z,6.28
2023-04-06T13:23:30.183Z,6.93
2023-04-06T13:26:01.615Z,7.43
2023-04-06T13:28:28.709Z,7.55
2023-04-06T13:30:56.201Z,7.82
2023-04-06T13:33:23.138Z,7.75
2023-04-06T13:35:49.518Z,7.43
2023-04-06T13:38:17.343Z,6.43
2023-04-06T13:40:44.883Z,5.80
2023-04-06T13:43:11.720Z,7.00
2023-04-06T13:45:39.225Z,6.13
2023-04-06T13:48:06.817Z,5.97
2023-04-06T13:50:33.999Z,6.40
2023-04-06T13:53:00.602Z,6.55
2023-04-06T13:55:27.020Z,5.80
2023-04-06T13:57:53.675Z,4.25
2023-04-06T14:00:20.329Z,4.55
2023-04-06T14:02:46.801Z,4.90
2023-04-06T14:05:13.415Z,4.97
2023-04-06T14:07:39.791Z,5.38
2023-04-06T14:10:14.717Z,5.80
2023-04-06T14:12:45.583Z,6.70
2023-04-06T14:15:13.309Z,6.85
2023-04-06T14:17:39.779Z,6.80
2023-04-06T14:20:07.829Z,6.13
2023-04-06T14:22:34.217Z,6.70
2023-04-06T14:25:00.835Z,6.07
2023-04-06T14:27:27.500Z,5.75
2023-04-06T14:29:55.018Z,5.03
2023-04-06T14:32:22.307Z,4.60
2023-04-06T14:34:48.795Z,4.88
2023-04-06T14:37:15.895Z,5.03
2023-04-06T14:39:42.318Z,4.75
2023-04-06T14:42:08.717Z,4.85
2023-04-06T14:44:38.016Z,4.03
2023-04-06T14:47:07.242Z,4.57
2023-04-06T14:49:33.829Z,4.03
2023-04-06T14:52:01.338Z,4.07
2023-04-06T14:54:27.753Z,4.55
2023-04-06T14:56:54.524Z,4.78
2023-04-06T14:59:21.272Z,4.43
2023-04-06T15:01:48.344Z,4.45
2023-04-06T15:04:15.150Z,4.63
2023-04-06T15:06:43.786Z,4.70
2023-04-06T15:09:10.493Z,5.05
2023-04-06T15:11:36.844Z,4.95
2023-04-06T15:14:03.268Z,4.70
2023-04-06T15:16:33.145Z,4.47
2023-04-06T15:19:01.348Z,4.95
2023-04-06T15:21:28.182Z,5.20
2023-04-06T15:23:54.984Z,4.90
2023-04-06T15:26:22.243Z,5.65
2023-04-06T15:28:49.057Z,4.53
2023-04-06T15:31:32.955Z,5.63
2023-04-06T15:34:00.771Z,6.10
2023-04-06T15:36:31.025Z,6.47
2023-04-06T15:39:01.565Z,6.32
2023-04-06T15:41:28.713Z,6.25
2023-04-06T15:43:56.114Z,6.50
2023-04-06T15:46:23.195Z,5.72
2023-04-06T15:48:50.076Z,6.20
2023-04-06T15:51:17.532Z,5.50
2023-04-06T15:53:44.601Z,5.22
2023-04-06T15:56:11.055Z,5.70
2023-04-06T15:58:38.147Z,5.85
2023-04-06T16:01:18.734Z,5.70
2023-04-06T16:03:46.789Z,5.25
2023-04-06T16:06:14.017Z,5.57
2023-04-06T16:08:41.037Z,5.32
2023-04-06T16:11:08.369Z,6.03
2023-04-06T16:13:35.711Z,5.75
2023-04-06T16:16:03.980Z,5.32
2023-04-06T16:18:31.415Z,6.03
2023-04-06T16:20:59.964Z,5.18
2023-04-06T16:23:27.127Z,5.13
2023-04-06T16:25:58.046Z,5.90
2023-04-06T16:28:25.616Z,6.07
2023-04-06T16:30:52.861Z,6.35
2023-04-06T16:33:19.849Z,6.68
2023-04-06T16:35:47.332Z,5.75
2023-04-06T16:38:14.533Z,5.97
2023-04-06T16:40:41.097Z,5.60
2023-04-06T16:43:07.760Z,6.63
2023-04-06T16:45:34.208Z,6.03
2023-04-06T16:48:00.718Z,6.25
2023-04-06T16:50:27.682Z,6.70
2023-04-06T16:52:54.072Z,7.20
2023-04-06T16:55:20.551Z,8.05
2023-04-06T16:57:49.100Z,7.55
2023-04-06T17:00:16.577Z,7.68
2023-04-06T17:02:47.298Z,7.03
2023-04-06T17:05:14.535Z,7.85
2023-04-06T17:07:41.119Z,7.43
2023-04-06T17:10:08.518Z,7.75
2023-04-06T17:12:34.936Z,7.75
2023-04-06T17:15:01.520Z,8.38
2023-04-06T17:17:27.892Z,7.45
2023-04-06T17:19:54.371Z,8.48
2023-04-06T17:22:21.390Z,7.70
2023-04-06T17:24:49.351Z,7.80
2023-04-06T17:27:16.611Z,7.95
2023-04-06T17:29:43.179Z,7.90
2023-04-06T17:32:11.890Z,8.57
2023-04-06T17:34:38.944Z,8.43
2023-04-06T17:37:05.788Z,8.32
2023-04-06T17:39:32.426Z,8.63
2023-04-06T17:41:59.844Z,8.15
2023-04-06T17:44:26.686Z,7.95
2023-04-06T17:46:53.625Z,8.52
2023-04-06T17:49:20.402Z,8.60
2023-04-06T17:51:46.991Z,8.82
2023-04-06T17:54:13.353Z,8.55
2023-04-06T17:56:39.853Z,8.90
2023-04-06T17:59:08.320Z,8.40
2023-04-06T18:01:34.873Z,8.07
2023-04-06T18:04:01.498Z,8.95
2023-04-06T18:06:28.021Z,8.90
2023-04-06T18:08:54.920Z,8.30
2023-04-06T18:11:21.623Z,8.68
2023-04-06T18:13:48.644Z,9.18
2023-04-06T18:16:17.105Z,8.65
2023-04-06T18:18:43.606Z,8.73
2023-04-06T18:21:10.220Z,8.50
2023-04-06T18:23:38.010Z,8.57
2023-04-06T18:26:06.153Z,8.68
2023-04-06T18:28:33.287Z,8.13
2023-04-06T18:31:00.228Z,8.50
2023-04-06T18:33:29.804Z,8.65
2023-04-06T18:35:59.872Z,8.95
2023-04-06T18:38:26.372Z,8.50
2023-04-06T18:40:53.190Z,8.88
2023-04-06T18:43:19.829Z,8.68
2023-04-06T18:45:46.580Z,7.60
2023-04-06T18:48:13.672Z,8.70
2023-04-06T18:50:40.518Z,8.15
2023-04-06T18:53:07.016Z,7.72
2023-04-06T18:55:34.109Z,7.68
2023-04-06T18:58:00.819Z,8.48
2023-04-06T19:00:27.889Z,7.53
2023-04-06T19:02:54.528Z,7.75
2023-04-06T19:05:22.162Z,8.13
2023-04-06T19:07:52.210Z,9.05
2023-04-06T19:10:19.292Z,8.63
2023-04-06T19:12:46.659Z,8.73
2023-04-06T19:15:13.387Z,8.32
2023-04-06T19:17:40.418Z,8.18
2023-04-06T19:20:07.737Z,8.07
2023-04-06T19:22:36.228Z,8.77
2023-04-06T19:25:03.961Z,9.13
2023-04-06T19:27:30.682Z,8.52
2023-04-06T19:29:57.568Z,8.38
2023-04-06T19:32:24.172Z,7.30
2023-04-06T19:34:51.350Z,7.85
2023-04-06T19:37:17.985Z,8.65
2023-04-06T19:39:44.353Z,7.53
2023-04-06T19:42:12.153Z,7.45
2023-04-06T19:44:38.488Z,8.27
2023-04-06T19:47:05.210Z,7.05
2023-04-06T19:49:31.603Z,6.65
2023-04-06T19:51:57.980Z,6.88
2023-04-06T19:54:24.675Z,7.05
2023-04-06T19:56:51.532Z,6.43
2023-04-06T19:59:18.043Z,6.97
2023-04-06T20:01:45.437Z,6.60
2023-04-06T20:04:13.002Z,6.35
2023-04-06T20:06:39.752Z,6.05
2023-04-06T20:09:06.564Z,6.82
2023-04-06T20:11:35.488Z,7.13
2023-04-06T20:14:02.131Z,7.45
2023-04-06T20:16:28.620Z,6.80
2023-04-06T20:18:55.280Z,7.05
2023-04-06T20:21:22.217Z,7.28
2023-04-06T20:23:48.622Z,7.90
2023-04-06T20:26:15.991Z,7.07
2023-04-06T20:28:42.461Z,7.68
2023-04-06T20:31:08.831Z,7.45
2023-04-06T20:33:35.801Z,7.97
2023-04-06T20:36:02.753Z,8.77
2023-04-06T20:40:59.999Z,9.80
2023-04-06T20:43:28.633Z,11.00
2023-04-06T20:45:59.258Z,9.30
2023-04-06T20:48:26.299Z,10.23
2023-04-06T20:50:53.038Z,11.85
2023-04-06T20:53:20.938Z,11.40
2023-04-06T20:55:47.805Z,11.02
2023-04-06T20:58:20.470Z,11.55
2023-04-06T21:00:49.775Z,11.35
2023-04-06T21:03:17.569Z,10.55
2023-04-06T21:05:55.652Z,11.82
2023-04-06T21:08:22.470Z,10.90
2023-04-06T21:10:48.932Z,10.95
2023-04-06T21:13:15.689Z,10.63
2023-04-06T21:15:42.640Z,10.60
2023-04-06T21:18:09.610Z,11.77
2023-04-06T21:20:36.921Z,10.38
2023-04-06T21:23:03.488Z,11.05
2023-04-06T21:25:29.833Z,11.15
2023-04-06T21:27:56.249Z,10.60
2023-04-06T21:30:23.444Z,10.15
2023-04-06T21:32:49.823Z,10.38
2023-04-06T21:35:16.361Z,10.93
2023-04-06T21:37:42.800Z,10.38
2023-04-06T21:40:09.752Z,10.68
2023-04-06T21:42:36.100Z,8.93
2023-04-06T21:45:02.694Z,9.45
2023-04-06T21:47:29.425Z,10.00
2023-04-06T21:49:55.796Z,9.65
2023-04-06T21:52:22.168Z,8.82
2023-04-06T21:54:48.905Z,8.68
2023-04-06T21:57:15.242Z,8.32
2023-04-06T21:59:41.608Z,8.68
2023-04-06T22:02:08.138Z,8.68
2023-04-06T22:04:34.613Z,8.57
2023-04-06T22:07:01.196Z,9.13
2023-04-06T22:09:27.900Z,9.02
2023-04-06T22:11:54.704Z,9.23
2023-04-06T22:14:21.706Z,8.45
2023-04-06T22:16:48.444Z,8.43
2023-04-06T22:19:15.485Z,8.00
2023-04-06T22:21:41.962Z,8.57
2023-04-06T22:24:08.620Z,8.30
2023-04-06T22:26:35.429Z,9.02
2023-04-06T22:29:01.852Z,8.40
2023-04-06T22:31:28.608Z,8.23
2023-04-06T22:33:55.560Z,8.27
2023-04-06T22:36:22.006Z,8.10
2023-04-06T22:38:51.065Z,8.25
2023-04-06T22:41:17.481Z,8.98
2023-04-06T22:43:43.853Z,8.20
2023-04-06T22:46:10.601Z,8.57
2023-04-06T22:48:36.960Z,8.20
2023-04-06T22:51:03.376Z,8.40
2023-04-06T22:53:30.170Z,9.10
2023-04-06T22:55:56.643Z,8.32
2023-04-06T22:58:23.033Z,8.25
2023-04-06T23:00:49.384Z,7.93
2023-04-06T23:03:15.891Z,8.55
2023-04-06T23:05:42.624Z,8.50
2023-04-06T23:08:08.966Z,8.75
2023-04-06T23:10:37.218Z,8.95
2023-04-06T23:13:03.560Z,8.10
2023-04-06T23:15:30.031Z,9.05
2023-04-06T23:17:56.540Z,8.50
2023-04-06T23:20:23.399Z,8.80
2023-04-06T23:22:49.727Z,9.02
2023-04-06T23:25:16.543Z,9.18
2023-04-06T23:27:43.201Z,8.30
2023-04-06T23:30:10.060Z,9.35
2023-04-06T23:32:37.116Z,9.68
2023-04-06T23:35:03.800Z,9.07
2023-04-06T23:37:31.002Z,9.40
2023-04-06T23:39:57.513Z,9.90
2023-04-06T23:42:28.800Z,9.48
2023-04-06T23:44:55.479Z,9.10
2023-04-06T23:47:21.893Z,9.35
2023-04-06T23:49:48.354Z,9.88
2023-04-06T23:52:14.688Z,10.60
2023-04-06T23:54:41.057Z,11.02
2023-04-06T23:57:07.601Z,10.52
2023-04-06T23:59:34.003Z,10.05
